DAL1555 KTPA-KATL
Flight info
| Callsign | DAL1555 |
|---|---|
| Flight time | 1h 6m |
| Altitude | 31000 |
| Route | BAYPO2 CAMJO DCT LAIRI DCT LARZZ JJEDI4 |
| Aircraft | A320/M-FAA/L |
Departure
| Time | 2026-04-30 19:44 |
|---|---|
| Airport | Tampa International Airport (KTPA) |
Arrival
| Time | 2026-04-30 20:50 |
|---|---|
| Airport | Hartsfield Jackson Atlanta International Airport (KATL) |
| Time | Latitude | Longitude | Altitude | Speed | Heading |
|---|---|---|---|---|---|
| 2026-04-30 19:20 | 27.98093 | -82.53754 | 43 ft | 0 kts | 203° |
| 2026-04-30 19:31 | 27.98101 | -82.53750 | 43 ft | 1 kts | 203° |
| 2026-04-30 19:32 | 27.98107 | -82.53748 | 41 ft | 1 kts | 203° |
| 2026-04-30 19:32 | 27.98114 | -82.53744 | 42 ft | 1 kts | 202° |
| 2026-04-30 19:32 | 27.98121 | -82.53741 | 43 ft | 1 kts | 202° |
| 2026-04-30 19:32 | 27.98128 | -82.53737 | 40 ft | 1 kts | 205° |
| 2026-04-30 19:33 | 27.98135 | -82.53733 | 43 ft | 1 kts | 205° |
| 2026-04-30 19:33 | 27.98139 | -82.53731 | 43 ft | 0 kts | 205° |
| 2026-04-30 19:35 | 27.98136 | -82.53735 | 43 ft | 1 kts | 222° |
| 2026-04-30 19:35 | 27.98136 | -82.53746 | 41 ft | 4 kts | 262° |
| 2026-04-30 19:36 | 27.98149 | -82.53793 | 43 ft | 9 kts | 300° |
| 2026-04-30 19:36 | 27.98189 | -82.53856 | 43 ft | 9 kts | 305° |
| 2026-04-30 19:36 | 27.98143 | -82.53968 | 47 ft | 11 kts | 182° |
| 2026-04-30 19:37 | 27.98053 | -82.53981 | 47 ft | 13 kts | 211° |
| 2026-04-30 19:37 | 27.98069 | -82.54049 | 47 ft | 12 kts | 346° |
| 2026-04-30 19:37 | 27.98172 | -82.54047 | 47 ft | 18 kts | 3° |
| 2026-04-30 19:37 | 27.98311 | -82.54042 | 48 ft | 21 kts | 360° |
| 2026-04-30 19:38 | 27.98457 | -82.54039 | 48 ft | 22 kts | 1° |
| 2026-04-30 19:38 | 27.98602 | -82.54035 | 48 ft | 22 kts | 1° |
| 2026-04-30 19:38 | 27.98774 | -82.54026 | 48 ft | 27 kts | 1° |
| 2026-04-30 19:38 | 27.98941 | -82.54022 | 46 ft | 24 kts | 1° |
| 2026-04-30 19:39 | 27.99035 | -82.54020 | 46 ft | 9 kts | 2° |
| 2026-04-30 19:39 | 27.99123 | -82.54014 | 46 ft | 16 kts | 4° |
| 2026-04-30 19:39 | 27.99228 | -82.54008 | 46 ft | 12 kts | 1° |
| 2026-04-30 19:39 | 27.99304 | -82.54006 | 46 ft | 7 kts | 357° |
| 2026-04-30 19:40 | 27.99306 | -82.54006 | 46 ft | 0 kts | 356° |
| 2026-04-30 19:42 | 27.99321 | -82.54010 | 46 ft | 5 kts | 342° |
| 2026-04-30 19:42 | 27.99348 | -82.54058 | 46 ft | 10 kts | 277° |
| 2026-04-30 19:42 | 27.99311 | -82.54132 | 46 ft | 13 kts | 197° |
| 2026-04-30 19:43 | 27.99190 | -82.54138 | 47 ft | 36 kts | 182° |
| 2026-04-30 19:43 | 27.98520 | -82.54160 | 71 ft | 145 kts | 183° |
| 2026-04-30 19:43 | 27.97769 | -82.54130 | 339 ft | 179 kts | 181° |
| 2026-04-30 19:44 | 27.95115 | -82.53993 | 2451 ft | 198 kts | 184° |
| 2026-04-30 19:44 | 27.93664 | -82.54015 | 3594 ft | 221 kts | 184° |
| 2026-04-30 19:44 | 27.91545 | -82.54480 | 4870 ft | 250 kts | 212° |
| 2026-04-30 19:44 | 27.90605 | -82.55316 | 5531 ft | 260 kts | 231° |
| 2026-04-30 19:45 | 27.89778 | -82.57100 | 6780 ft | 261 kts | 258° |
| 2026-04-30 19:45 | 27.89786 | -82.59145 | 8084 ft | 261 kts | 285° |
| 2026-04-30 19:45 | 27.90634 | -82.60915 | 9516 ft | 262 kts | 309° |
| 2026-04-30 19:45 | 27.92162 | -82.62141 | 10545 ft | 283 kts | 333° |
| 2026-04-30 19:46 | 27.94198 | -82.62580 | 11270 ft | 315 kts | 356° |
| 2026-04-30 19:46 | 27.96440 | -82.62064 | 11889 ft | 348 kts | 16° |
| 2026-04-30 19:46 | 27.98735 | -82.61015 | 12872 ft | 357 kts | 16° |
| 2026-04-30 19:46 | 28.01118 | -82.60173 | 13969 ft | 359 kts | 9° |
| 2026-04-30 19:47 | 28.03563 | -82.59660 | 14985 ft | 360 kts | 3° |
| 2026-04-30 19:47 | 28.06066 | -82.59378 | 16023 ft | 361 kts | 359° |
| 2026-04-30 19:47 | 28.08567 | -82.59223 | 17007 ft | 365 kts | 358° |
| 2026-04-30 19:47 | 28.11132 | -82.59115 | 18009 ft | 369 kts | 357° |
| 2026-04-30 19:48 | 28.13717 | -82.59019 | 18840 ft | 374 kts | 357° |
| 2026-04-30 19:48 | 28.16317 | -82.58920 | 19642 ft | 379 kts | 357° |
| 2026-04-30 19:48 | 28.18982 | -82.58813 | 20376 ft | 386 kts | 357° |
| 2026-04-30 19:48 | 28.21690 | -82.58699 | 21156 ft | 390 kts | 357° |
| 2026-04-30 19:49 | 28.24396 | -82.58583 | 21904 ft | 396 kts | 357° |
| 2026-04-30 19:49 | 28.29989 | -82.58342 | 23375 ft | 405 kts | 357° |
| 2026-04-30 19:49 | 28.32803 | -82.58220 | 23984 ft | 410 kts | 357° |
| 2026-04-30 19:50 | 28.35675 | -82.58095 | 24595 ft | 414 kts | 356° |
| 2026-04-30 19:50 | 28.38531 | -82.58119 | 25177 ft | 416 kts | 353° |
| 2026-04-30 19:50 | 28.41457 | -82.58199 | 25764 ft | 420 kts | 353° |
| 2026-04-30 19:50 | 28.44398 | -82.58274 | 26352 ft | 424 kts | 353° |
| 2026-04-30 19:51 | 28.47342 | -82.58347 | 26943 ft | 428 kts | 353° |
| 2026-04-30 19:51 | 28.50348 | -82.58421 | 27546 ft | 431 kts | 353° |
| 2026-04-30 19:51 | 28.53339 | -82.58496 | 28122 ft | 435 kts | 353° |
| 2026-04-30 19:51 | 28.56393 | -82.58574 | 28680 ft | 438 kts | 353° |
| 2026-04-30 19:52 | 28.59425 | -82.58650 | 29230 ft | 442 kts | 353° |
| 2026-04-30 19:52 | 28.62522 | -82.58728 | 29790 ft | 445 kts | 353° |
| 2026-04-30 19:52 | 28.65642 | -82.58807 | 30307 ft | 448 kts | 353° |
| 2026-04-30 19:52 | 28.68749 | -82.59068 | 30721 ft | 446 kts | 347° |
| 2026-04-30 19:53 | 28.71801 | -82.59503 | 30887 ft | 447 kts | 347° |
| 2026-04-30 19:53 | 28.74897 | -82.59937 | 30946 ft | 447 kts | 348° |
| 2026-04-30 19:53 | 28.81044 | -82.60791 | 30951 ft | 444 kts | 347° |
| 2026-04-30 19:54 | 28.87176 | -82.61648 | 30951 ft | 445 kts | 347° |
| 2026-04-30 19:54 | 28.93305 | -82.62505 | 30950 ft | 445 kts | 347° |
| 2026-04-30 19:55 | 28.99437 | -82.63363 | 30953 ft | 445 kts | 347° |
| 2026-04-30 19:55 | 29.05588 | -82.64225 | 30964 ft | 445 kts | 347° |
| 2026-04-30 19:56 | 29.11744 | -82.65089 | 30948 ft | 444 kts | 347° |
| 2026-04-30 19:56 | 29.17870 | -82.65949 | 30932 ft | 444 kts | 347° |
| 2026-04-30 19:57 | 29.23969 | -82.66807 | 30934 ft | 443 kts | 347° |
| 2026-04-30 19:57 | 29.30090 | -82.67668 | 30929 ft | 444 kts | 347° |
| 2026-04-30 19:58 | 29.36206 | -82.68529 | 30941 ft | 444 kts | 347° |
| 2026-04-30 19:58 | 29.42352 | -82.69288 | 30935 ft | 447 kts | 351° |
| 2026-04-30 19:59 | 29.48593 | -82.69268 | 30928 ft | 449 kts | 354° |
| 2026-04-30 20:00 | 29.57959 | -82.69216 | 30923 ft | 448 kts | 353° |
| 2026-04-30 20:00 | 29.64160 | -82.69178 | 30937 ft | 448 kts | 353° |
| 2026-04-30 20:01 | 29.73515 | -82.69121 | 30934 ft | 448 kts | 353° |
| 2026-04-30 20:01 | 29.79728 | -82.69081 | 30923 ft | 447 kts | 353° |
| 2026-04-30 20:02 | 29.89064 | -82.69022 | 30912 ft | 446 kts | 353° |
| 2026-04-30 20:03 | 29.98361 | -82.68962 | 30916 ft | 445 kts | 353° |
| 2026-04-30 20:03 | 30.04530 | -82.68925 | 30903 ft | 444 kts | 353° |
| 2026-04-30 20:04 | 30.10691 | -82.68887 | 30895 ft | 443 kts | 353° |
| 2026-04-30 20:05 | 30.19933 | -82.68828 | 30923 ft | 443 kts | 352° |
| 2026-04-30 20:05 | 30.29169 | -82.68769 | 30959 ft | 441 kts | 352° |
| 2026-04-30 20:06 | 30.35296 | -82.68730 | 30964 ft | 440 kts | 352° |
| 2026-04-30 20:06 | 30.41418 | -82.68691 | 30959 ft | 440 kts | 352° |
| 2026-04-30 20:07 | 30.47561 | -82.68653 | 30966 ft | 440 kts | 352° |
| 2026-04-30 20:08 | 30.56756 | -82.68094 | 30962 ft | 444 kts | 356° |
| 2026-04-30 20:08 | 30.62940 | -82.67531 | 30962 ft | 444 kts | 356° |
| 2026-04-30 20:09 | 30.69090 | -82.66972 | 30962 ft | 445 kts | 356° |
| 2026-04-30 20:09 | 30.78356 | -82.66125 | 30958 ft | 445 kts | 355° |
| 2026-04-30 20:10 | 30.87628 | -82.65277 | 30946 ft | 445 kts | 355° |
| 2026-04-30 20:11 | 30.96878 | -82.64429 | 30908 ft | 445 kts | 355° |
| 2026-04-30 20:11 | 31.03052 | -82.63863 | 30902 ft | 445 kts | 355° |
| 2026-04-30 20:12 | 31.12328 | -82.63007 | 30911 ft | 445 kts | 355° |
| 2026-04-30 20:13 | 31.18469 | -82.62442 | 30911 ft | 444 kts | 355° |
| 2026-04-30 20:13 | 31.24637 | -82.61873 | 30897 ft | 443 kts | 355° |
| 2026-04-30 20:14 | 31.30769 | -82.61306 | 30887 ft | 443 kts | 355° |
| 2026-04-30 20:14 | 31.36887 | -82.60737 | 30892 ft | 442 kts | 354° |
| 2026-04-30 20:15 | 31.43031 | -82.60167 | 30873 ft | 440 kts | 354° |
| 2026-04-30 20:15 | 31.49114 | -82.59603 | 30859 ft | 438 kts | 354° |
| 2026-04-30 20:16 | 31.55168 | -82.59042 | 30856 ft | 438 kts | 354° |
| 2026-04-30 20:16 | 31.61236 | -82.58476 | 30871 ft | 437 kts | 354° |
| 2026-04-30 20:17 | 31.67309 | -82.57910 | 30876 ft | 436 kts | 354° |
| 2026-04-30 20:17 | 31.73341 | -82.57349 | 30868 ft | 436 kts | 354° |
| 2026-04-30 20:18 | 31.79380 | -82.56785 | 30865 ft | 435 kts | 354° |
| 2026-04-30 20:18 | 31.85404 | -82.56222 | 30863 ft | 435 kts | 354° |
| 2026-04-30 20:19 | 31.91440 | -82.55738 | 30877 ft | 424 kts | 348° |
| 2026-04-30 20:19 | 31.96999 | -82.57083 | 30879 ft | 399 kts | 329° |
| 2026-04-30 20:20 | 32.01543 | -82.60478 | 30879 ft | 383 kts | 313° |
| 2026-04-30 20:20 | 32.05570 | -82.64602 | 30877 ft | 383 kts | 314° |
| 2026-04-30 20:21 | 32.09588 | -82.68697 | 30890 ft | 383 kts | 314° |
| 2026-04-30 20:21 | 32.13604 | -82.72796 | 30645 ft | 379 kts | 314° |
| 2026-04-30 20:21 | 32.15595 | -82.74830 | 30091 ft | 375 kts | 313° |
| 2026-04-30 20:22 | 32.17541 | -82.76819 | 29213 ft | 373 kts | 313° |
| 2026-04-30 20:22 | 32.19511 | -82.78836 | 28133 ft | 374 kts | 313° |
| 2026-04-30 20:22 | 32.21493 | -82.80868 | 27066 ft | 376 kts | 313° |
| 2026-04-30 20:22 | 32.23465 | -82.82890 | 26060 ft | 378 kts | 312° |
| 2026-04-30 20:23 | 32.25469 | -82.84947 | 25107 ft | 380 kts | 312° |
| 2026-04-30 20:23 | 32.27442 | -82.86971 | 24454 ft | 379 kts | 312° |
| 2026-04-30 20:23 | 32.29446 | -82.89029 | 24122 ft | 384 kts | 312° |
| 2026-04-30 20:23 | 32.31459 | -82.91100 | 23986 ft | 385 kts | 312° |
| 2026-04-30 20:24 | 32.33504 | -82.93200 | 23911 ft | 385 kts | 312° |
| 2026-04-30 20:24 | 32.35497 | -82.95250 | 23887 ft | 385 kts | 312° |
| 2026-04-30 20:24 | 32.37527 | -82.97338 | 23901 ft | 385 kts | 312° |
| 2026-04-30 20:24 | 32.39536 | -82.99406 | 23904 ft | 385 kts | 312° |
| 2026-04-30 20:25 | 32.43589 | -83.03580 | 23920 ft | 384 kts | 311° |
| 2026-04-30 20:25 | 32.45605 | -83.05654 | 23905 ft | 382 kts | 311° |
| 2026-04-30 20:26 | 32.49594 | -83.09773 | 23901 ft | 383 kts | 311° |
| 2026-04-30 20:26 | 32.53626 | -83.13941 | 23904 ft | 383 kts | 311° |
| 2026-04-30 20:26 | 32.55610 | -83.15992 | 23899 ft | 382 kts | 311° |
| 2026-04-30 20:27 | 32.59606 | -83.20127 | 23900 ft | 381 kts | 311° |
| 2026-04-30 20:27 | 32.63591 | -83.24256 | 23678 ft | 378 kts | 311° |
| 2026-04-30 20:28 | 32.67520 | -83.28332 | 22378 ft | 371 kts | 311° |
| 2026-04-30 20:28 | 32.71360 | -83.32320 | 20997 ft | 360 kts | 312° |
| 2026-04-30 20:29 | 32.75033 | -83.36141 | 19722 ft | 346 kts | 313° |
| 2026-04-30 20:30 | 32.80366 | -83.41715 | 17541 ft | 336 kts | 314° |
| 2026-04-30 20:30 | 32.85606 | -83.47189 | 15142 ft | 333 kts | 314° |
| 2026-04-30 20:31 | 32.90836 | -83.52658 | 12916 ft | 330 kts | 315° |
| 2026-04-30 20:32 | 32.95927 | -83.57985 | 10862 ft | 322 kts | 315° |
| 2026-04-30 20:32 | 32.98712 | -83.60902 | 10106 ft | 319 kts | 315° |
| 2026-04-30 20:33 | 33.00946 | -83.63249 | 9960 ft | 321 kts | 316° |
| 2026-04-30 20:33 | 33.03730 | -83.66171 | 9938 ft | 313 kts | 316° |
| 2026-04-30 20:33 | 33.05322 | -83.67835 | 9937 ft | 292 kts | 316° |
| 2026-04-30 20:34 | 33.08220 | -83.70875 | 9942 ft | 277 kts | 315° |
| 2026-04-30 20:34 | 33.11098 | -83.73908 | 9942 ft | 274 kts | 315° |
| 2026-04-30 20:35 | 33.12516 | -83.75402 | 9941 ft | 276 kts | 315° |
| 2026-04-30 20:35 | 33.13960 | -83.76921 | 9950 ft | 275 kts | 315° |
| 2026-04-30 20:35 | 33.16832 | -83.79945 | 9951 ft | 275 kts | 315° |
| 2026-04-30 20:36 | 33.18252 | -83.81441 | 9947 ft | 275 kts | 315° |
| 2026-04-30 20:36 | 33.19660 | -83.83003 | 9930 ft | 273 kts | 312° |
| 2026-04-30 20:36 | 33.22328 | -83.86192 | 9207 ft | 271 kts | 313° |
| 2026-04-30 20:37 | 33.23664 | -83.87784 | 8724 ft | 270 kts | 313° |
| 2026-04-30 20:37 | 33.24985 | -83.89357 | 8264 ft | 269 kts | 313° |
| 2026-04-30 20:37 | 33.26308 | -83.90932 | 8029 ft | 269 kts | 314° |
| 2026-04-30 20:37 | 33.27639 | -83.92518 | 7951 ft | 270 kts | 314° |
| 2026-04-30 20:38 | 33.28957 | -83.94088 | 7958 ft | 269 kts | 314° |
| 2026-04-30 20:38 | 33.30269 | -83.95654 | 7961 ft | 257 kts | 314° |
| 2026-04-30 20:38 | 33.31481 | -83.97099 | 7962 ft | 240 kts | 314° |
| 2026-04-30 20:39 | 33.33714 | -83.99771 | 7709 ft | 222 kts | 314° |
| 2026-04-30 20:39 | 33.34811 | -84.01089 | 7390 ft | 223 kts | 314° |
| 2026-04-30 20:39 | 33.35970 | -84.02324 | 7122 ft | 221 kts | 327° |
| 2026-04-30 20:40 | 33.38964 | -84.02954 | 6565 ft | 222 kts | 358° |
| 2026-04-30 20:40 | 33.40503 | -84.02970 | 6263 ft | 222 kts | 358° |
| 2026-04-30 20:40 | 33.42041 | -84.02997 | 6037 ft | 218 kts | 358° |
| 2026-04-30 20:41 | 33.45080 | -84.03072 | 5952 ft | 220 kts | 354° |
| 2026-04-30 20:41 | 33.46533 | -84.03560 | 5919 ft | 214 kts | 332° |
| 2026-04-30 20:41 | 33.47704 | -84.04604 | 5858 ft | 205 kts | 320° |
| 2026-04-30 20:41 | 33.48755 | -84.05679 | 5784 ft | 196 kts | 321° |
| 2026-04-30 20:42 | 33.49777 | -84.06709 | 5716 ft | 188 kts | 321° |
| 2026-04-30 20:42 | 33.50754 | -84.07687 | 5649 ft | 181 kts | 321° |
| 2026-04-30 20:42 | 33.52643 | -84.09576 | 5365 ft | 175 kts | 322° |
| 2026-04-30 20:43 | 33.53564 | -84.10498 | 5166 ft | 174 kts | 322° |
| 2026-04-30 20:43 | 33.54501 | -84.11431 | 4963 ft | 175 kts | 322° |
| 2026-04-30 20:43 | 33.55436 | -84.12371 | 4769 ft | 175 kts | 322° |
| 2026-04-30 20:44 | 33.57267 | -84.14206 | 4393 ft | 170 kts | 322° |
| 2026-04-30 20:44 | 33.58183 | -84.15124 | 4226 ft | 171 kts | 322° |
| 2026-04-30 20:44 | 33.59914 | -84.16854 | 3987 ft | 151 kts | 321° |
| 2026-04-30 20:45 | 33.61581 | -84.18526 | 3980 ft | 155 kts | 321° |
| 2026-04-30 20:45 | 33.62433 | -84.19383 | 3977 ft | 160 kts | 321° |
| 2026-04-30 20:45 | 33.63187 | -84.20351 | 3975 ft | 160 kts | 302° |
| 2026-04-30 20:46 | 33.63466 | -84.24409 | 3670 ft | 159 kts | 274° |
| 2026-04-30 20:46 | 33.63466 | -84.25747 | 3462 ft | 158 kts | 273° |
| 2026-04-30 20:47 | 33.63467 | -84.28256 | 3076 ft | 152 kts | 274° |
| 2026-04-30 20:47 | 33.63466 | -84.29510 | 2867 ft | 146 kts | 274° |
| 2026-04-30 20:48 | 33.63466 | -84.31839 | 2503 ft | 137 kts | 274° |
| 2026-04-30 20:48 | 33.63468 | -84.32981 | 2306 ft | 135 kts | 274° |
| 2026-04-30 20:48 | 33.63468 | -84.34086 | 2082 ft | 133 kts | 275° |
| 2026-04-30 20:48 | 33.63441 | -84.35184 | 1886 ft | 131 kts | 274° |
| 2026-04-30 20:49 | 33.63449 | -84.36284 | 1748 ft | 132 kts | 277° |
| 2026-04-30 20:49 | 33.63465 | -84.37429 | 1683 ft | 134 kts | 274° |
| 2026-04-30 20:49 | 33.63472 | -84.38546 | 1485 ft | 133 kts | 272° |
| 2026-04-30 20:50 | 33.63468 | -84.40684 | 1077 ft | 115 kts | 276° |
| 2026-04-30 20:50 | 33.63476 | -84.41576 | 1005 ft | 92 kts | 271° |
| 2026-04-30 20:50 | 33.63473 | -84.42098 | 1006 ft | 34 kts | 268° |
| 2026-04-30 20:50 | 33.63473 | -84.42238 | 1007 ft | 21 kts | 270° |
| 2026-04-30 20:51 | 33.63475 | -84.42448 | 1008 ft | 27 kts | 271° |
| 2026-04-30 20:51 | 33.63477 | -84.42752 | 1006 ft | 14 kts | 270° |
| 2026-04-30 20:51 | 33.63476 | -84.42894 | 1006 ft | 20 kts | 271° |
| 2026-04-30 20:52 | 33.63514 | -84.43081 | 1005 ft | 24 kts | 303° |
| 2026-04-30 20:52 | 33.63568 | -84.43185 | 1005 ft | 13 kts | 295° |
| 2026-04-30 20:52 | 33.63653 | -84.43311 | 1006 ft | 9 kts | 35° |
| 2026-04-30 20:53 | 33.63665 | -84.43221 | 1006 ft | 12 kts | 89° |
| 2026-04-30 20:53 | 33.63716 | -84.43130 | 1006 ft | 13 kts | 6° |
| 2026-04-30 20:53 | 33.63809 | -84.43078 | 1006 ft | 14 kts | 32° |
| 2026-04-30 20:54 | 33.63996 | -84.43059 | 1006 ft | 18 kts | 2° |
| 2026-04-30 20:54 | 33.64085 | -84.43060 | 1006 ft | 8 kts | 7° |
| 2026-04-30 20:54 | 33.64111 | -84.43017 | 1006 ft | 1 kts | 76° |
| 2026-04-30 20:55 | 33.64115 | -84.42995 | 1006 ft | 0 kts | 76° |